createdAt,value
2019-05-13T00:00:59.295Z,1014.27
2019-05-13T00:01:59.335Z,1014.29
2019-05-13T00:02:59.372Z,1014.31
2019-05-13T00:03:59.412Z,1014.34
2019-05-13T00:04:59.441Z,1014.33
2019-05-13T00:05:59.483Z,1014.29
2019-05-13T00:06:59.529Z,1014.30
2019-05-13T00:07:59.554Z,1014.24
2019-05-13T00:08:59.590Z,1014.29
2019-05-13T00:09:59.625Z,1014.28
2019-05-13T00:11:00.853Z,1014.31
2019-05-13T00:11:59.703Z,1014.31
2019-05-13T00:12:59.750Z,1014.36
2019-05-13T00:13:59.792Z,1014.36
2019-05-13T00:14:59.823Z,1014.34
2019-05-13T00:15:59.850Z,1014.30
2019-05-13T00:16:59.895Z,1014.30
2019-05-13T00:17:59.923Z,1014.30
2019-05-13T00:18:59.963Z,1014.32
2019-05-13T00:20:00.004Z,1014.27
2019-05-13T00:21:00.034Z,1014.27
2019-05-13T00:22:00.082Z,1014.27
2019-05-13T00:23:00.109Z,1014.30
2019-05-13T00:24:00.145Z,1014.27
2019-05-13T00:25:00.180Z,1014.31
2019-05-13T00:26:00.218Z,1014.30
2019-05-13T00:27:00.256Z,1014.26
2019-05-13T00:28:00.292Z,1014.30
2019-05-13T00:29:00.326Z,1014.31
2019-05-13T00:30:00.364Z,1014.31
2019-05-13T00:31:00.403Z,1014.29
2019-05-13T00:32:00.438Z,1014.30
2019-05-13T00:33:00.475Z,1014.32
2019-05-13T00:34:00.512Z,1014.29
2019-05-13T00:35:00.560Z,1014.33
2019-05-13T00:36:00.587Z,1014.35
2019-05-13T00:37:08.746Z,1014.35
2019-05-13T00:38:00.660Z,1014.35
2019-05-13T00:39:00.730Z,1014.36
2019-05-13T00:40:00.735Z,1014.31
2019-05-13T00:41:00.769Z,1014.33
2019-05-13T00:42:00.808Z,1014.34
2019-05-13T00:43:00.843Z,1014.34
2019-05-13T00:44:00.881Z,1014.31
2019-05-13T00:45:01.118Z,1014.33
2019-05-13T00:46:01.110Z,1014.33
2019-05-13T00:47:00.991Z,1014.29
2019-05-13T00:48:01.029Z,1014.29
2019-05-13T00:49:01.064Z,1014.30
2019-05-13T00:50:03.503Z,1014.27
2019-05-13T00:51:03.510Z,1014.26
2019-05-13T00:52:01.173Z,1014.24
2019-05-13T00:53:01.210Z,1014.30
2019-05-13T00:54:01.247Z,1014.30
2019-05-13T00:55:01.284Z,1014.29
2019-05-13T00:56:01.321Z,1014.31
2019-05-13T00:57:01.356Z,1014.28
2019-05-13T00:58:01.392Z,1014.31
2019-05-13T00:59:03.687Z,1014.31
2019-05-13T01:00:03.529Z,1014.27
2019-05-13T01:01:03.645Z,1014.25
2019-05-13T01:02:03.606Z,1014.27
2019-05-13T01:03:03.773Z,1014.26
2019-05-13T01:04:03.754Z,1014.26
2019-05-13T01:05:04.142Z,1014.25
2019-05-13T01:06:04.035Z,1014.26
2019-05-13T01:07:04.129Z,1014.27
2019-05-13T01:08:03.906Z,1014.25
2019-05-13T01:09:04.047Z,1014.28
2019-05-13T01:10:04.048Z,1014.31
2019-05-13T01:11:04.073Z,1014.31
2019-05-13T01:12:04.115Z,1014.32
2019-05-13T01:13:04.278Z,1014.33
2019-05-13T01:14:04.073Z,1014.38
2019-05-13T01:15:04.131Z,1014.34
2019-05-13T01:16:03.734Z,1014.34
2019-05-13T01:17:03.904Z,1014.37
2019-05-13T01:18:04.092Z,1014.39
2019-05-13T01:19:04.242Z,1014.43
2019-05-13T01:20:04.112Z,1014.48
2019-05-13T01:21:04.321Z,1014.44
2019-05-13T01:22:03.398Z,1014.46
2019-05-13T01:23:03.637Z,1014.49
2019-05-13T01:24:03.677Z,1014.47
2019-05-13T01:25:03.958Z,1014.39
2019-05-13T01:26:03.935Z,1014.45
2019-05-13T01:27:03.860Z,1014.41
2019-05-13T01:28:04.519Z,1014.41
2019-05-13T01:29:04.205Z,1014.44
2019-05-13T01:30:04.182Z,1014.44
2019-05-13T01:31:04.156Z,1014.40
2019-05-13T01:32:04.522Z,1014.37
2019-05-13T01:33:04.370Z,1014.42
2019-05-13T01:34:04.025Z,1014.35
2019-05-13T01:35:04.579Z,1014.41
2019-05-13T01:36:05.137Z,1014.47
2019-05-13T01:37:04.302Z,1014.41
2019-05-13T01:38:04.598Z,1014.43
2019-05-13T01:39:04.237Z,1014.45
2019-05-13T01:40:05.091Z,1014.46
2019-05-13T01:41:04.451Z,1014.46
2019-05-13T01:42:03.737Z,1014.48
2019-05-13T01:43:03.697Z,1014.51
2019-05-13T01:44:03.953Z,1014.53
2019-05-13T01:45:04.629Z,1014.49
2019-05-13T01:46:04.459Z,1014.50
2019-05-13T01:47:04.500Z,1014.46
2019-05-13T01:48:07.449Z,1014.43
2019-05-13T01:49:04.979Z,1014.51
2019-05-13T01:50:04.069Z,1014.51
2019-05-13T01:51:03.902Z,1014.50
2019-05-13T01:52:03.941Z,1014.50
2019-05-13T01:53:04.137Z,1014.51
2019-05-13T01:54:04.208Z,1014.52
2019-05-13T01:55:04.134Z,1014.51
2019-05-13T01:56:04.016Z,1014.54
2019-05-13T01:57:04.413Z,1014.54
2019-05-13T01:58:04.497Z,1014.56
2019-05-13T01:59:03.864Z,1014.58
2019-05-13T02:00:04.718Z,1014.55
2019-05-13T02:01:05.022Z,1014.54
2019-05-13T02:02:03.747Z,1014.58
2019-05-13T02:03:04.178Z,1014.60
2019-05-13T02:04:04.226Z,1014.60
2019-05-13T02:05:04.070Z,1014.60
2019-05-13T02:06:04.021Z,1014.61
2019-05-13T02:07:04.312Z,1014.58
2019-05-13T02:08:04.604Z,1014.59
2019-05-13T02:09:04.089Z,1014.59
2019-05-13T02:10:04.334Z,1014.57
2019-05-13T02:11:04.619Z,1014.61
2019-05-13T02:12:04.847Z,1014.62
2019-05-13T02:13:04.165Z,1014.64
2019-05-13T02:14:05.639Z,1014.61
2019-05-13T02:15:04.515Z,1014.67
2019-05-13T02:16:04.494Z,1014.68
2019-05-13T02:17:04.497Z,1014.70
2019-05-13T02:18:04.312Z,1014.69
2019-05-13T02:19:04.476Z,1014.70
2019-05-13T02:20:04.389Z,1014.70
2019-05-13T02:21:05.611Z,1014.68
2019-05-13T02:22:04.457Z,1014.67
2019-05-13T02:23:04.491Z,1014.68
2019-05-13T02:24:04.583Z,1014.67
2019-05-13T02:25:04.655Z,1014.70
2019-05-13T02:26:04.742Z,1014.67
2019-05-13T02:27:04.640Z,1014.70
2019-05-13T02:28:09.439Z,1014.71
2019-05-13T02:29:04.708Z,1014.67
2019-05-13T02:30:05.859Z,1014.69
2019-05-13T02:31:04.781Z,1014.66
2019-05-13T02:32:04.818Z,1014.69
2019-05-13T02:33:04.856Z,1014.70
2019-05-13T02:34:04.897Z,1014.72
2019-05-13T02:35:04.931Z,1014.71
2019-05-13T02:36:04.978Z,1014.73
2019-05-13T02:37:04.998Z,1014.78
2019-05-13T02:38:19.426Z,1014.75
2019-05-13T02:39:05.340Z,1014.75
2019-05-13T02:40:05.485Z,1014.75
2019-05-13T02:41:05.144Z,1014.76
2019-05-13T02:42:05.177Z,1014.73
2019-05-13T02:43:05.217Z,1014.73
2019-05-13T02:44:05.249Z,1014.72
2019-05-13T02:45:05.289Z,1014.72
2019-05-13T02:46:05.321Z,1014.76
2019-05-13T02:47:05.636Z,1014.71
2019-05-13T02:48:05.410Z,1014.68
2019-05-13T02:49:05.758Z,1014.68
2019-05-13T02:50:05.575Z,1014.71
2019-05-13T02:51:05.504Z,1014.68
2019-05-13T02:52:05.591Z,1014.72
2019-05-13T02:53:05.574Z,1014.67
2019-05-13T02:54:05.609Z,1014.73
2019-05-13T02:55:05.645Z,1014.70
2019-05-13T02:56:05.684Z,1014.72
2019-05-13T02:57:05.721Z,1014.74
2019-05-13T02:58:05.764Z,1014.78
2019-05-13T02:59:05.844Z,1014.75
2019-05-13T03:00:05.828Z,1014.81
2019-05-13T03:01:05.867Z,1014.74
2019-05-13T03:02:05.897Z,1014.75
2019-05-13T03:03:05.934Z,1014.76
2019-05-13T03:04:06.082Z,1014.76
2019-05-13T03:05:06.006Z,1014.73
2019-05-13T03:06:06.046Z,1014.74
2019-05-13T03:07:06.078Z,1014.76
2019-05-13T03:08:06.126Z,1014.78
2019-05-13T03:09:06.150Z,1014.79
2019-05-13T03:10:06.193Z,1014.77
2019-05-13T03:11:06.643Z,1014.81
2019-05-13T03:12:06.258Z,1014.80
2019-05-13T03:13:06.295Z,1014.80
2019-05-13T03:14:06.332Z,1014.81
2019-05-13T03:15:06.369Z,1014.79
2019-05-13T03:16:06.402Z,1014.81
2019-05-13T03:17:06.437Z,1014.77
2019-05-13T03:18:06.482Z,1014.79
2019-05-13T03:19:06.510Z,1014.78
2019-05-13T03:20:06.577Z,1014.81
2019-05-13T03:21:06.582Z,1014.84
2019-05-13T03:22:06.617Z,1014.82
2019-05-13T03:23:06.657Z,1014.80
2019-05-13T03:24:06.691Z,1014.85
2019-05-13T03:25:06.726Z,1014.83
2019-05-13T03:26:06.761Z,1014.84
2019-05-13T03:27:06.797Z,1014.83
2019-05-13T03:28:06.834Z,1014.86
2019-05-13T03:29:06.878Z,1014.87
2019-05-13T03:30:06.914Z,1014.83
2019-05-13T03:31:07.924Z,1014.83
2019-05-13T03:32:07.682Z,1014.87
2019-05-13T03:33:10.706Z,1014.86
2019-05-13T03:34:07.715Z,1014.87
2019-05-13T03:35:08.599Z,1014.90
2019-05-13T03:36:08.427Z,1014.89
2019-05-13T03:37:08.254Z,1014.92
2019-05-13T03:38:07.193Z,1014.93
2019-05-13T03:39:14.505Z,1014.97
2019-05-13T03:40:07.263Z,1014.96
2019-05-13T03:41:07.306Z,1015.00
2019-05-13T03:42:07.338Z,1015.06
2019-05-13T03:43:07.371Z,1015.08
2019-05-13T03:44:07.408Z,1015.06
2019-05-13T03:45:07.458Z,1015.15
2019-05-13T03:46:07.479Z,1015.14
2019-05-13T03:47:07.514Z,1015.19
2019-05-13T03:48:07.563Z,1015.20
2019-05-13T03:49:07.585Z,1015.24
2019-05-13T03:50:07.625Z,1015.24
2019-05-13T03:51:07.659Z,1015.26
2019-05-13T03:52:07.696Z,1015.28
2019-05-13T03:53:07.736Z,1015.27
2019-05-13T03:54:07.768Z,1015.28
2019-05-13T03:55:07.804Z,1015.33
2019-05-13T03:56:07.837Z,1015.30
2019-05-13T03:57:07.873Z,1015.34
2019-05-13T03:58:07.915Z,1015.35
2019-05-13T03:59:07.944Z,1015.38
2019-05-13T04:00:07.982Z,1015.38
2019-05-13T04:01:08.025Z,1015.38
2019-05-13T04:02:08.055Z,1015.41
2019-05-13T04:03:08.089Z,1015.40
2019-05-13T04:04:08.124Z,1015.42
2019-05-13T04:05:08.163Z,1015.40
2019-05-13T04:06:08.197Z,1015.47
2019-05-13T04:07:08.236Z,1015.48
2019-05-13T04:08:08.271Z,1015.51
2019-05-13T04:09:25.093Z,1015.47
2019-05-13T04:10:08.341Z,1015.49
2019-05-13T04:11:08.377Z,1015.49
2019-05-13T04:12:08.416Z,1015.50
2019-05-13T04:13:08.547Z,1015.51
2019-05-13T04:14:08.483Z,1015.55
2019-05-13T04:15:08.517Z,1015.53
2019-05-13T04:16:08.555Z,1015.52
2019-05-13T04:17:08.588Z,1015.52
2019-05-13T04:18:08.626Z,1015.49
2019-05-13T04:19:08.662Z,1015.50
2019-05-13T04:20:08.702Z,1015.54
2019-05-13T04:21:08.734Z,1015.55
2019-05-13T04:22:08.771Z,1015.57
2019-05-13T04:23:08.805Z,1015.58
2019-05-13T04:24:12.007Z,1015.58
2019-05-13T04:25:08.883Z,1015.55
2019-05-13T04:26:08.921Z,1015.56
2019-05-13T04:27:08.953Z,1015.59
2019-05-13T04:28:08.984Z,1015.59
2019-05-13T04:29:09.024Z,1015.61
2019-05-13T04:30:09.064Z,1015.58
2019-05-13T04:31:09.093Z,1015.58
2019-05-13T04:32:12.327Z,1015.63
2019-05-13T04:33:09.164Z,1015.57
2019-05-13T04:34:12.091Z,1015.56
2019-05-13T04:35:12.227Z,1015.59
2019-05-13T04:36:12.861Z,1015.58
2019-05-13T04:37:09.307Z,1015.58
2019-05-13T04:38:12.446Z,1015.60
2019-05-13T04:39:12.679Z,1015.66
2019-05-13T04:40:12.614Z,1015.71
2019-05-13T04:41:11.959Z,1015.69
2019-05-13T04:42:12.253Z,1015.72
2019-05-13T04:43:12.818Z,1015.72
2019-05-13T04:44:12.849Z,1015.74
2019-05-13T04:45:13.016Z,1015.77
2019-05-13T04:46:13.595Z,1015.74
2019-05-13T04:47:12.811Z,1015.77
2019-05-13T04:48:12.569Z,1015.83
2019-05-13T04:49:12.566Z,1015.80
2019-05-13T04:50:12.561Z,1015.83
2019-05-13T04:51:13.143Z,1015.85
2019-05-13T04:52:13.128Z,1015.87
2019-05-13T04:53:13.408Z,1015.85
2019-05-13T04:54:12.771Z,1015.84
2019-05-13T04:55:12.748Z,1015.81
2019-05-13T04:56:13.270Z,1015.83
2019-05-13T04:57:12.366Z,1015.81
2019-05-13T04:58:13.069Z,1015.83
2019-05-13T04:59:12.495Z,1015.85
2019-05-13T05:00:12.901Z,1015.93
2019-05-13T05:01:14.129Z,1015.93
2019-05-13T05:02:13.240Z,1015.96
2019-05-13T05:03:13.388Z,1015.95
2019-05-13T05:04:21.423Z,1015.98
2019-05-13T05:05:12.917Z,1015.90
2019-05-13T05:06:12.027Z,1015.92
2019-05-13T05:07:12.711Z,1015.95
2019-05-13T05:08:12.027Z,1016.00
2019-05-13T05:09:12.542Z,1015.98
2019-05-13T05:10:21.399Z,1016.04
2019-05-13T05:11:13.294Z,1015.99
2019-05-13T05:12:12.466Z,1016.05
2019-05-13T05:13:12.789Z,1016.04
2019-05-13T05:14:11.967Z,1016.10
2019-05-13T05:15:12.089Z,1016.07
2019-05-13T05:16:12.950Z,1016.10
2019-05-13T05:17:12.461Z,1016.08
2019-05-13T05:18:11.653Z,1016.04
2019-05-13T05:19:12.209Z,1016.07
2019-05-13T05:20:12.226Z,1016.06
2019-05-13T05:21:11.951Z,1016.05
2019-05-13T05:22:13.276Z,1016.06
2019-05-13T05:23:11.222Z,1016.12
2019-05-13T05:24:11.452Z,1016.10
2019-05-13T05:25:11.696Z,1016.14
2019-05-13T05:26:11.670Z,1016.09
2019-05-13T05:27:12.021Z,1016.08
2019-05-13T05:28:11.296Z,1016.06
2019-05-13T05:29:11.421Z,1016.03
2019-05-13T05:30:11.476Z,1016.06
2019-05-13T05:31:11.595Z,1016.05
2019-05-13T05:32:12.340Z,1016.03
2019-05-13T05:33:11.451Z,1016.08
2019-05-13T05:34:11.619Z,1016.03
2019-05-13T05:35:11.914Z,1016.04
2019-05-13T05:36:11.810Z,1016.05
2019-05-13T05:37:11.880Z,1016.08
2019-05-13T05:38:12.100Z,1016.06
2019-05-13T05:39:12.339Z,1016.07
2019-05-13T05:40:12.353Z,1016.04
2019-05-13T05:41:12.175Z,1016.04
2019-05-13T05:42:11.664Z,1016.01
2019-05-13T05:43:11.722Z,1016.04
2019-05-13T05:44:12.549Z,1016.00
2019-05-13T05:45:11.775Z,1016.02
2019-05-13T05:46:11.828Z,1016.03
2019-05-13T05:47:11.851Z,1016.03
2019-05-13T05:48:11.951Z,1016.04
2019-05-13T05:49:12.693Z,1016.04
2019-05-13T05:50:12.268Z,1016.05
2019-05-13T05:51:13.172Z,1016.00
2019-05-13T05:52:12.459Z,1016.04
2019-05-13T05:53:12.071Z,1016.08
2019-05-13T05:54:14.607Z,1016.07
2019-05-13T05:55:12.143Z,1016.09
2019-05-13T05:56:12.180Z,1016.14
2019-05-13T05:57:12.388Z,1016.13
2019-05-13T05:58:12.255Z,1016.15
2019-05-13T05:59:12.587Z,1016.12
2019-05-13T06:00:12.329Z,1016.17
2019-05-13T06:01:12.370Z,1016.20
2019-05-13T06:02:12.522Z,1016.18
2019-05-13T06:03:13.836Z,1016.19
2019-05-13T06:04:12.785Z,1016.16
2019-05-13T06:05:12.675Z,1016.21
2019-05-13T06:06:12.761Z,1016.19
2019-05-13T06:07:12.590Z,1016.21
2019-05-13T06:08:12.633Z,1016.21
2019-05-13T06:09:12.666Z,1016.20
2019-05-13T06:10:12.703Z,1016.19
2019-05-13T06:11:12.740Z,1016.16
2019-05-13T06:12:12.778Z,1016.20
2019-05-13T06:13:12.817Z,1016.21
2019-05-13T06:14:12.852Z,1016.18
2019-05-13T06:15:12.893Z,1016.23
2019-05-13T06:16:12.932Z,1016.21
2019-05-13T06:17:12.972Z,1016.15
2019-05-13T06:18:13.005Z,1016.17
2019-05-13T06:19:13.044Z,1016.16
2019-05-13T06:20:13.530Z,1016.15
2019-05-13T06:21:13.117Z,1016.18
2019-05-13T06:22:13.162Z,1016.16
2019-05-13T06:23:13.193Z,1016.17
2019-05-13T06:24:13.240Z,1016.16
2019-05-13T06:25:14.587Z,1016.17
2019-05-13T06:26:13.457Z,1016.16
2019-05-13T06:27:13.343Z,1016.20
2019-05-13T06:28:13.384Z,1016.15
2019-05-13T06:29:13.420Z,1016.17
2019-05-13T06:30:13.460Z,1016.18
2019-05-13T06:31:13.506Z,1016.17
2019-05-13T06:32:21.482Z,1016.18
2019-05-13T06:33:13.580Z,1016.20
2019-05-13T06:34:13.624Z,1016.22
2019-05-13T06:35:13.650Z,1016.16
2019-05-13T06:36:13.688Z,1016.17
2019-05-13T06:37:13.724Z,1016.13
2019-05-13T06:38:13.814Z,1016.12
2019-05-13T06:39:13.802Z,1016.13
2019-05-13T06:40:13.846Z,1016.11
2019-05-13T06:41:14.932Z,1016.09
2019-05-13T06:42:13.919Z,1016.11
2019-05-13T06:43:13.957Z,1016.10
2019-05-13T06:44:13.994Z,1016.09
2019-05-13T06:45:14.043Z,1016.07
2019-05-13T06:46:14.074Z,1016.11
2019-05-13T06:47:14.121Z,1016.08
2019-05-13T06:48:14.151Z,1016.13
2019-05-13T06:49:14.198Z,1016.13
2019-05-13T06:50:14.226Z,1016.12
2019-05-13T06:51:14.268Z,1016.12
2019-05-13T06:52:14.404Z,1016.05
2019-05-13T06:53:14.338Z,1016.08
2019-05-13T06:54:14.378Z,1016.03
2019-05-13T06:55:14.416Z,1015.99
2019-05-13T06:56:14.456Z,1016.03
2019-05-13T06:57:14.494Z,1016.06
2019-05-13T06:58:14.533Z,1016.05
2019-05-13T06:59:14.573Z,1016.06
2019-05-13T07:00:14.609Z,1016.02
2019-05-13T07:01:14.649Z,1016.00
2019-05-13T07:02:14.687Z,1015.97
2019-05-13T07:03:14.730Z,1015.92
2019-05-13T07:04:14.765Z,1015.90
2019-05-13T07:05:14.812Z,1015.90
2019-05-13T07:06:14.846Z,1015.93
2019-05-13T07:07:17.285Z,1015.92
2019-05-13T07:08:14.921Z,1015.89
2019-05-13T07:09:14.959Z,1015.93
2019-05-13T07:10:15.001Z,1015.98
2019-05-13T07:11:20.974Z,1016.01
2019-05-13T07:12:15.075Z,1015.97
2019-05-13T07:13:15.113Z,1015.98
2019-05-13T07:14:15.163Z,1015.98
2019-05-13T07:15:15.195Z,1015.97
2019-05-13T07:16:15.236Z,1015.95
2019-05-13T07:17:15.272Z,1015.94
2019-05-13T07:18:16.333Z,1015.90
2019-05-13T07:19:15.347Z,1015.93
2019-05-13T07:20:15.397Z,1015.92
2019-05-13T07:21:15.427Z,1015.89
2019-05-13T07:22:15.466Z,1015.86
2019-05-13T07:23:15.504Z,1015.88
2019-05-13T07:24:15.546Z,1015.86
2019-05-13T07:25:15.588Z,1015.87
2019-05-13T07:26:15.620Z,1015.89
2019-05-13T07:27:15.667Z,1015.87
2019-05-13T07:28:15.698Z,1015.85
2019-05-13T07:29:16.209Z,1015.86
2019-05-13T07:30:15.777Z,1015.87
2019-05-13T07:31:15.824Z,1015.93
2019-05-13T07:32:15.856Z,1015.95
2019-05-13T07:33:15.893Z,1015.97
2019-05-13T07:34:15.936Z,1015.95
2019-05-13T07:35:15.975Z,1015.97
2019-05-13T07:36:16.012Z,1016.00
2019-05-13T07:37:16.050Z,1015.95
2019-05-13T07:38:16.090Z,1015.97
2019-05-13T07:39:16.129Z,1015.92
2019-05-13T07:40:16.171Z,1015.88
2019-05-13T07:41:16.207Z,1015.89
2019-05-13T07:42:16.256Z,1015.84
2019-05-13T07:43:16.287Z,1015.86
2019-05-13T07:44:16.335Z,1015.84
2019-05-13T07:45:16.364Z,1015.79
2019-05-13T07:46:16.410Z,1015.81
2019-05-13T07:47:16.496Z,1015.84
2019-05-13T07:48:20.944Z,1015.80
2019-05-13T07:49:16.527Z,1015.79
2019-05-13T07:50:16.563Z,1015.79
2019-05-13T07:51:16.602Z,1015.75
2019-05-13T07:52:16.655Z,1015.70
2019-05-13T07:53:18.996Z,1015.72
2019-05-13T07:54:16.722Z,1015.69
2019-05-13T07:55:16.759Z,1015.70
2019-05-13T07:56:16.799Z,1015.67
2019-05-13T07:57:16.837Z,1015.66
2019-05-13T07:58:16.884Z,1015.63
2019-05-13T07:59:16.925Z,1015.65
2019-05-13T08:00:16.963Z,1015.62
2019-05-13T08:01:16.996Z,1015.66
2019-05-13T08:02:17.056Z,1015.63
2019-05-13T08:03:17.076Z,1015.63
2019-05-13T08:04:22.452Z,1015.66
2019-05-13T08:05:17.155Z,1015.64
2019-05-13T08:06:17.194Z,1015.66
2019-05-13T08:07:17.240Z,1015.63
2019-05-13T08:08:17.277Z,1015.63
2019-05-13T08:09:17.313Z,1015.65
2019-05-13T08:10:17.353Z,1015.63
2019-05-13T08:11:17.391Z,1015.67
2019-05-13T08:12:17.534Z,1015.64
2019-05-13T08:13:17.472Z,1015.66
2019-05-13T08:14:17.512Z,1015.65
2019-05-13T08:15:17.553Z,1015.60
2019-05-13T08:16:17.592Z,1015.61
2019-05-13T08:17:17.631Z,1015.63
2019-05-13T08:18:17.671Z,1015.63
2019-05-13T08:19:17.710Z,1015.68
2019-05-13T08:20:17.760Z,1015.67
2019-05-13T08:21:17.790Z,1015.65
2019-05-13T08:22:17.894Z,1015.64
2019-05-13T08:23:17.872Z,1015.64
2019-05-13T08:24:17.908Z,1015.63
2019-05-13T08:25:17.949Z,1015.63
2019-05-13T08:26:17.988Z,1015.64
2019-05-13T08:27:24.015Z,1015.60
2019-05-13T08:28:18.071Z,1015.61
2019-05-13T08:29:18.116Z,1015.63
2019-05-13T08:30:18.567Z,1015.64
2019-05-13T08:31:18.188Z,1015.63
2019-05-13T08:32:18.229Z,1015.62
2019-05-13T08:33:18.273Z,1015.62
2019-05-13T08:34:18.310Z,1015.62
2019-05-13T08:35:18.351Z,1015.57
2019-05-13T08:36:18.390Z,1015.63
2019-05-13T08:37:18.428Z,1015.60
2019-05-13T08:38:18.473Z,1015.62
2019-05-13T08:39:18.525Z,1015.61
2019-05-13T08:40:20.372Z,1015.62
2019-05-13T08:41:19.369Z,1015.58
2019-05-13T08:42:20.106Z,1015.59
2019-05-13T08:43:18.672Z,1015.58
2019-05-13T08:44:21.453Z,1015.60
2019-05-13T08:45:18.750Z,1015.59
2019-05-13T08:46:18.796Z,1015.59
2019-05-13T08:47:18.845Z,1015.58
2019-05-13T08:48:18.879Z,1015.57
2019-05-13T08:49:18.918Z,1015.56
2019-05-13T08:50:21.846Z,1015.62
2019-05-13T08:51:18.991Z,1015.60
2019-05-13T08:52:19.032Z,1015.59
2019-05-13T08:53:21.136Z,1015.57
2019-05-13T08:54:21.805Z,1015.56
2019-05-13T08:55:21.505Z,1015.56
2019-05-13T08:56:21.601Z,1015.55
2019-05-13T08:57:19.231Z,1015.52
2019-05-13T08:58:21.116Z,1015.52
2019-05-13T08:59:19.312Z,1015.52
2019-05-13T09:00:21.460Z,1015.52
2019-05-13T09:01:19.396Z,1015.47
2019-05-13T09:02:21.978Z,1015.48
2019-05-13T09:03:21.547Z,1015.47
2019-05-13T09:04:22.099Z,1015.46
2019-05-13T09:05:21.529Z,1015.46
2019-05-13T09:06:21.964Z,1015.47
2019-05-13T09:07:23.922Z,1015.43
2019-05-13T09:08:22.173Z,1015.41
2019-05-13T09:09:21.880Z,1015.44
2019-05-13T09:10:21.464Z,1015.42
2019-05-13T09:11:22.049Z,1015.45
2019-05-13T09:12:29.505Z,1015.43
2019-05-13T09:13:22.165Z,1015.41
2019-05-13T09:14:21.949Z,1015.37
2019-05-13T09:15:22.310Z,1015.35
2019-05-13T09:16:21.449Z,1015.34
2019-05-13T09:17:21.356Z,1015.35
2019-05-13T09:18:22.797Z,1015.39
2019-05-13T09:19:21.571Z,1015.36
2019-05-13T09:20:22.013Z,1015.34
2019-05-13T09:21:22.500Z,1015.32
2019-05-13T09:22:21.358Z,1015.32
2019-05-13T09:23:22.338Z,1015.34
2019-05-13T09:24:26.104Z,1015.33
2019-05-13T09:25:21.572Z,1015.32
2019-05-13T09:26:22.563Z,1015.32
2019-05-13T09:27:22.595Z,1015.36
2019-05-13T09:28:21.804Z,1015.35
2019-05-13T09:29:22.535Z,1015.37
2019-05-13T09:30:22.268Z,1015.40
2019-05-13T09:31:22.059Z,1015.40
2019-05-13T09:32:21.568Z,1015.41
2019-05-13T09:33:21.899Z,1015.31
2019-05-13T09:34:22.164Z,1015.36
2019-05-13T09:35:22.212Z,1015.40
2019-05-13T09:36:21.745Z,1015.28
2019-05-13T09:37:22.392Z,1015.38
2019-05-13T09:38:22.188Z,1015.33
2019-05-13T09:39:21.684Z,1015.32
2019-05-13T09:40:22.328Z,1015.30
2019-05-13T09:41:21.529Z,1015.28
2019-05-13T09:42:21.744Z,1015.31
2019-05-13T09:43:22.194Z,1015.31
2019-05-13T09:44:21.868Z,1015.35
2019-05-13T09:45:21.638Z,1015.28
2019-05-13T09:46:22.525Z,1015.29
2019-05-13T09:47:21.826Z,1015.32
2019-05-13T09:48:22.458Z,1015.25
2019-05-13T09:49:23.635Z,1015.28
2019-05-13T09:50:29.431Z,1015.19
2019-05-13T09:51:21.794Z,1015.23
2019-05-13T09:52:22.543Z,1015.16
2019-05-13T09:53:22.429Z,1015.18
2019-05-13T09:54:22.266Z,1015.21
2019-05-13T09:55:28.451Z,1015.21
2019-05-13T09:56:22.415Z,1015.16
2019-05-13T09:57:22.124Z,1015.22
2019-05-13T09:58:22.572Z,1015.18
2019-05-13T09:59:22.242Z,1015.14
2019-05-13T10:00:21.960Z,1015.12
2019-05-13T10:01:22.714Z,1015.16
2019-05-13T10:02:21.884Z,1015.17
2019-05-13T10:03:26.586Z,1015.22
2019-05-13T10:04:22.357Z,1015.21
2019-05-13T10:05:22.440Z,1015.15
2019-05-13T10:06:22.330Z,1015.16
2019-05-13T10:07:22.972Z,1015.15
2019-05-13T10:08:22.261Z,1015.12
2019-05-13T10:09:22.171Z,1015.17
2019-05-13T10:10:22.507Z,1015.23
2019-05-13T10:11:22.463Z,1015.22
2019-05-13T10:12:24.332Z,1015.33
2019-05-13T10:13:23.320Z,1015.27
2019-05-13T10:14:23.002Z,1015.18
2019-05-13T10:15:22.417Z,1015.22
2019-05-13T10:16:22.457Z,1015.31
2019-05-13T10:17:22.512Z,1015.19
2019-05-13T10:18:22.538Z,1015.13
2019-05-13T10:19:22.589Z,1015.13
2019-05-13T10:20:22.651Z,1015.13
2019-05-13T10:21:22.663Z,1015.01
2019-05-13T10:22:22.720Z,1015.07
2019-05-13T10:23:22.746Z,1015.11
2019-05-13T10:24:22.803Z,1015.08
2019-05-13T10:25:22.825Z,1015.19
2019-05-13T10:26:22.976Z,1015.08
2019-05-13T10:27:22.914Z,1015.10
2019-05-13T10:28:22.952Z,1015.11
2019-05-13T10:29:22.990Z,1015.06
2019-05-13T10:30:23.031Z,1015.05
2019-05-13T10:31:23.175Z,1015.12
2019-05-13T10:32:23.114Z,1015.00
2019-05-13T10:33:23.156Z,1015.08
2019-05-13T10:34:23.197Z,1015.08
2019-05-13T10:35:23.238Z,1015.14
2019-05-13T10:36:23.279Z,1015.11
2019-05-13T10:37:23.319Z,1015.13
2019-05-13T10:38:27.556Z,1015.11
2019-05-13T10:39:23.408Z,1015.25
2019-05-13T10:40:23.445Z,1015.08
2019-05-13T10:41:23.485Z,1015.27
2019-05-13T10:42:23.535Z,1015.02
2019-05-13T10:43:30.980Z,1015.08
2019-05-13T10:44:23.616Z,1015.02
2019-05-13T10:45:23.649Z,1015.03
2019-05-13T10:46:23.700Z,1015.09
2019-05-13T10:47:23.732Z,1015.06
2019-05-13T10:48:23.786Z,1015.02
2019-05-13T10:49:23.816Z,1014.98
2019-05-13T10:50:27.616Z,1015.00
2019-05-13T10:51:23.897Z,1014.99
2019-05-13T10:52:23.938Z,1015.13
2019-05-13T10:53:23.997Z,1015.06
2019-05-13T10:54:24.020Z,1015.04
2019-05-13T10:55:24.061Z,1015.02
2019-05-13T10:56:24.103Z,1015.02
2019-05-13T10:57:24.171Z,1014.97
2019-05-13T10:58:24.187Z,1014.96
2019-05-13T10:59:24.231Z,1014.96
2019-05-13T11:00:24.290Z,1014.98
2019-05-13T11:01:24.317Z,1014.92
2019-05-13T11:02:24.355Z,1015.00
2019-05-13T11:03:24.397Z,1014.84
2019-05-13T11:04:24.535Z,1014.86
2019-05-13T11:05:24.475Z,1014.95
2019-05-13T11:06:24.523Z,1014.86
2019-05-13T11:07:24.560Z,1014.94
2019-05-13T11:08:24.599Z,1014.89
2019-05-13T11:09:24.642Z,1014.96
2019-05-13T11:10:24.683Z,1014.93
2019-05-13T11:11:24.726Z,1015.02
2019-05-13T11:12:28.463Z,1014.98
2019-05-13T11:13:24.807Z,1014.98
2019-05-13T11:14:24.848Z,1015.05
2019-05-13T11:15:24.900Z,1014.94
2019-05-13T11:16:24.940Z,1014.92
2019-05-13T11:17:31.131Z,1014.92
2019-05-13T11:18:25.035Z,1014.92
2019-05-13T11:19:25.056Z,1014.92
2019-05-13T11:20:25.100Z,1014.99
2019-05-13T11:21:25.139Z,1014.90
2019-05-13T11:22:25.182Z,1014.91
2019-05-13T11:23:25.224Z,1014.86
2019-05-13T11:24:25.270Z,1014.83
2019-05-13T11:25:25.307Z,1014.88
2019-05-13T11:26:25.350Z,1014.87
2019-05-13T11:27:25.394Z,1014.86
2019-05-13T11:28:25.431Z,1014.91
2019-05-13T11:29:25.504Z,1014.88
2019-05-13T11:30:25.520Z,1014.84
2019-05-13T11:31:25.556Z,1014.79
2019-05-13T11:32:25.600Z,1014.92
2019-05-13T11:33:25.639Z,1014.84
2019-05-13T11:34:25.682Z,1014.77
2019-05-13T11:35:25.724Z,1014.73
2019-05-13T11:36:25.765Z,1014.76
2019-05-13T11:37:25.810Z,1014.72
2019-05-13T11:38:25.847Z,1014.69
2019-05-13T11:39:25.890Z,1014.67
2019-05-13T11:40:25.932Z,1014.67
2019-05-13T11:41:25.977Z,1014.63
2019-05-13T11:42:26.016Z,1014.73
2019-05-13T11:43:28.385Z,1014.65
2019-05-13T11:44:26.102Z,1014.68
2019-05-13T11:45:26.145Z,1014.58
2019-05-13T11:46:26.182Z,1014.60
2019-05-13T11:47:26.226Z,1014.72
2019-05-13T11:48:26.268Z,1014.59
2019-05-13T11:49:26.317Z,1014.55
2019-05-13T11:50:26.349Z,1014.55
2019-05-13T11:51:26.393Z,1014.58
2019-05-13T11:52:26.432Z,1014.54
2019-05-13T11:53:33.222Z,1014.52
2019-05-13T11:54:26.516Z,1014.46
2019-05-13T11:55:26.558Z,1014.52
2019-05-13T11:56:26.601Z,1014.53
2019-05-13T11:57:26.644Z,1014.46
2019-05-13T11:58:26.684Z,1014.57
2019-05-13T11:59:26.730Z,1014.68
2019-05-13T12:00:26.770Z,1014.55
2019-05-13T12:01:26.810Z,1014.54
2019-05-13T12:02:26.863Z,1014.52
2019-05-13T12:03:26.895Z,1014.55
2019-05-13T12:04:26.940Z,1014.46
2019-05-13T12:05:26.978Z,1014.45
2019-05-13T12:06:27.018Z,1014.44